createdAt,value
2023-03-06T05:03:51.597Z,6.67
2023-03-06T05:08:03.077Z,6.37
2023-03-06T05:12:14.534Z,6.10
2023-03-06T05:16:26.211Z,5.80
2023-03-06T05:20:37.711Z,6.30
2023-03-06T05:24:49.158Z,6.17
2023-03-06T05:29:00.674Z,5.83
2023-03-06T05:33:12.095Z,6.00
2023-03-06T05:37:23.776Z,6.00
2023-03-06T05:41:35.908Z,6.07
2023-03-06T05:45:47.485Z,5.63
2023-03-06T05:49:58.995Z,6.53
2023-03-06T05:54:10.427Z,6.03
2023-03-06T05:58:21.897Z,6.87
2023-03-06T06:02:33.357Z,6.27
2023-03-06T06:06:44.825Z,6.53
2023-03-06T06:10:56.232Z,6.30
2023-03-06T06:15:07.995Z,6.97
2023-03-06T06:19:20.254Z,7.80
2023-03-06T06:23:31.778Z,8.27
2023-03-06T06:27:43.247Z,7.40
2023-03-06T06:31:54.881Z,8.17
2023-03-06T06:36:15.572Z,7.87
2023-03-06T06:40:27.592Z,6.57
2023-03-06T06:44:39.610Z,6.47
2023-03-06T06:48:54.892Z,7.50
2023-03-06T06:53:06.347Z,7.97
2023-03-06T06:57:18.349Z,8.23
2023-03-06T07:01:29.962Z,8.17
2023-03-06T07:05:41.835Z,7.10
2023-03-06T07:09:53.279Z,7.50
2023-03-06T07:14:04.900Z,7.57
2023-03-06T07:18:16.368Z,7.17
2023-03-06T07:22:30.336Z,6.73
2023-03-06T07:26:47.734Z,6.80
2023-03-06T07:30:59.245Z,7.73
2023-03-06T07:35:20.050Z,7.33
2023-03-06T07:39:31.705Z,7.03
2023-03-06T07:43:44.903Z,7.43
2023-03-06T07:47:56.942Z,8.40
2023-03-06T07:52:08.457Z,7.53
2023-03-06T07:56:19.961Z,7.90
2023-03-06T08:00:31.452Z,7.93
2023-03-06T08:04:42.876Z,8.03
2023-03-06T08:08:55.654Z,7.70
2023-03-06T08:13:07.117Z,6.90
2023-03-06T08:17:18.667Z,7.43
2023-03-06T08:21:30.213Z,7.87
2023-03-06T08:25:41.654Z,7.50
2023-03-06T08:29:53.109Z,8.50
2023-03-06T08:34:07.841Z,7.53
2023-03-06T08:38:20.364Z,7.83
2023-03-06T08:42:32.599Z,8.80
2023-03-06T08:46:44.074Z,7.53
2023-03-06T08:50:55.910Z,8.40
2023-03-06T08:55:07.963Z,7.93
2023-03-06T08:59:19.553Z,7.67
2023-03-06T09:03:31.122Z,8.70
2023-03-06T09:07:42.633Z,8.37
2023-03-06T09:11:55.120Z,8.13
2023-03-06T09:16:07.508Z,9.93
2023-03-06T09:20:19.206Z,9.00
2023-03-06T09:24:30.808Z,8.83
2023-03-06T09:28:45.116Z,8.20
2023-03-06T09:32:56.762Z,8.30
2023-03-06T09:37:08.331Z,8.77
2023-03-06T09:41:28.971Z,8.43
2023-03-06T09:45:40.556Z,8.97
2023-03-06T09:50:41.605Z,8.87
2023-03-06T09:55:08.886Z,9.80
2023-03-06T09:59:23.833Z,9.50
2023-03-06T10:03:44.889Z,9.47
2023-03-06T10:08:03.472Z,9.17
2023-03-06T10:12:24.768Z,9.10
2023-03-06T10:16:36.445Z,8.60
2023-03-06T10:21:18.870Z,9.80
2023-03-06T10:25:42.746Z,9.23
2023-03-06T10:30:14.521Z,9.57
2023-03-06T10:34:32.618Z,9.80
2023-03-06T10:38:45.157Z,9.90
2023-03-06T10:43:10.890Z,9.50
2023-03-06T10:47:31.601Z,8.83
2023-03-06T10:51:57.936Z,10.40
2023-03-06T10:56:09.780Z,9.77
2023-03-06T11:00:31.388Z,9.90
2023-03-06T11:04:47.021Z,11.07
2023-03-06T11:09:24.750Z,10.20
2023-03-06T11:13:38.941Z,9.93
2023-03-06T11:18:00.912Z,10.37
2023-03-06T11:22:19.108Z,10.03
2023-03-06T11:26:33.883Z,10.97
2023-03-06T11:31:11.702Z,9.73
2023-03-06T11:35:47.086Z,9.93
2023-03-06T11:40:17.493Z,10.73
2023-03-06T11:44:51.655Z,9.57
2023-03-06T11:49:22.639Z,10.53
2023-03-06T11:53:37.915Z,9.50
2023-03-06T11:57:55.654Z,9.13
2023-03-06T12:02:28.458Z,9.30
2023-03-06T12:07:01.013Z,18.10
2023-03-06T12:11:20.296Z,9.27
2023-03-06T12:16:09.837Z,9.97
2023-03-06T12:20:50.641Z,9.70
2023-03-06T12:25:34.082Z,9.87
2023-03-06T12:29:59.306Z,8.27
2023-03-06T12:34:35.550Z,9.13
2023-03-06T12:39:09.663Z,9.00
2023-03-06T12:44:05.754Z,8.93
2023-03-06T12:48:24.186Z,8.60
2023-03-06T12:52:36.099Z,9.30
2023-03-06T12:56:48.957Z,9.23
2023-03-06T13:01:13.907Z,9.00
2023-03-06T13:05:54.622Z,9.20
2023-03-06T13:10:25.877Z,9.10
2023-03-06T13:14:37.557Z,9.67
2023-03-06T13:19:12.011Z,9.60
2023-03-06T13:23:29.534Z,9.85
2023-03-06T13:27:45.117Z,9.98
2023-03-06T13:32:02.625Z,11.60
2023-03-06T13:36:22.329Z,10.70
2023-03-06T13:40:35.330Z,10.93
2023-03-06T13:44:49.562Z,10.83
2023-03-06T13:49:13.120Z,11.63
2023-03-06T13:54:05.335Z,11.77
2023-03-06T13:58:42.886Z,11.23
2023-03-06T14:03:21.883Z,9.83
2023-03-06T14:07:40.045Z,8.73
2023-03-06T14:11:59.664Z,6.90
2023-03-06T14:16:19.143Z,7.07
2023-03-06T14:20:33.644Z,7.37
2023-03-06T14:24:56.674Z,7.10
2023-03-06T14:29:20.675Z,7.60
2023-03-06T14:33:52.557Z,7.67
2023-03-06T14:38:08.493Z,7.50
2023-03-06T14:42:25.309Z,7.30
2023-03-06T14:46:36.831Z,8.57
2023-03-06T14:50:58.145Z,8.47
2023-03-06T14:55:19.272Z,9.23
2023-03-06T14:59:42.180Z,9.20
2023-03-06T15:03:57.877Z,8.00
2023-03-06T15:08:09.539Z,9.47
2023-03-06T15:12:21.135Z,8.63
2023-03-06T15:16:32.612Z,8.33
2023-03-06T15:20:53.921Z,8.13
2023-03-06T15:25:20.038Z,9.20
2023-03-06T15:29:31.841Z,8.97
2023-03-06T15:33:43.700Z,8.57
2023-03-06T15:37:56.050Z,8.77
2023-03-06T15:42:23.430Z,8.77
2023-03-06T15:46:34.891Z,8.53
2023-03-06T15:50:46.449Z,8.57
2023-03-06T15:54:57.975Z,8.53
2023-03-06T15:59:21.675Z,9.33
2023-03-06T16:03:33.211Z,8.17
2023-03-06T16:07:44.869Z,7.77
2023-03-06T16:11:56.378Z,7.67
2023-03-06T16:16:22.459Z,7.07
2023-03-06T16:20:33.935Z,8.63
2023-03-06T16:24:45.370Z,8.03
2023-03-06T16:28:57.172Z,7.97
2023-03-06T16:33:13.407Z,8.70
2023-03-06T16:37:24.898Z,8.93
2023-03-06T16:41:36.423Z,7.93
2023-03-06T16:45:47.997Z,10.93
2023-03-06T16:50:02.219Z,10.43
2023-03-06T16:54:13.875Z,11.13
2023-03-06T16:58:25.320Z,9.33
2023-03-06T17:02:38.317Z,11.43
2023-03-06T17:06:53.203Z,8.93
2023-03-06T17:11:07.779Z,8.10
2023-03-06T17:15:19.896Z,7.87
2023-03-06T17:19:31.360Z,7.40
2023-03-06T17:23:44.335Z,9.87
2023-03-06T17:27:55.897Z,9.73
2023-03-06T17:32:07.622Z,9.97
2023-03-06T17:36:19.437Z,10.07
2023-03-06T17:40:33.405Z,8.73
2023-03-06T17:44:44.987Z,9.03
2023-03-06T17:48:56.518Z,8.57
2023-03-06T17:53:07.987Z,10.40
2023-03-06T17:57:19.496Z,10.53
2023-03-06T18:01:31.269Z,10.57
2023-03-06T18:05:42.691Z,10.63
2023-03-06T18:09:54.331Z,11.57
2023-03-06T18:14:05.826Z,9.40
2023-03-06T18:18:17.308Z,10.00
2023-03-06T18:22:28.787Z,10.10
2023-03-06T18:26:42.344Z,10.13
2023-03-06T18:30:53.795Z,12.63
2023-03-06T18:35:05.830Z,11.57
2023-03-06T18:39:17.360Z,11.80
2023-03-06T18:43:29.095Z,11.77
2023-03-06T18:47:40.880Z,11.00
2023-03-06T18:51:52.372Z,11.77
2023-03-06T18:56:03.976Z,10.70
2023-03-06T19:00:16.639Z,10.87
2023-03-06T19:04:28.157Z,11.40
2023-03-06T19:08:40.431Z,11.20
2023-03-06T19:12:51.897Z,10.73
2023-03-06T19:17:03.438Z,11.30
2023-03-06T19:21:18.087Z,10.67
2023-03-06T19:25:29.535Z,11.17
2023-03-06T19:29:41.852Z,10.77
2023-03-06T19:33:55.764Z,11.60
2023-03-06T19:38:07.385Z,12.27
2023-03-06T19:42:18.873Z,10.67
2023-03-06T19:46:31.641Z,12.17
2023-03-06T19:50:43.358Z,11.40
2023-03-06T19:54:55.008Z,11.43
2023-03-06T19:59:06.667Z,11.10
2023-03-06T20:03:18.102Z,11.97
2023-03-06T20:07:29.552Z,12.17
2023-03-06T20:11:41.048Z,11.70
2023-03-06T20:15:52.617Z,11.90
2023-03-06T20:20:04.333Z,11.47
2023-03-06T20:24:17.951Z,11.80
2023-03-06T20:28:30.034Z,12.67
2023-03-06T20:32:41.640Z,11.97
2023-03-06T20:36:53.191Z,11.90
2023-03-06T20:41:05.038Z,12.73
2023-03-06T20:45:16.584Z,13.43
2023-03-06T20:49:28.499Z,12.70
2023-03-06T20:53:40.174Z,20.77
2023-03-06T20:57:52.534Z,16.33
2023-03-06T21:02:04.103Z,14.10
2023-03-06T21:06:16.539Z,12.30
2023-03-06T21:10:29.123Z,12.57
2023-03-06T21:14:40.659Z,12.80
2023-03-06T21:18:55.325Z,12.87
2023-03-06T21:23:07.492Z,12.07
2023-03-06T21:27:19.151Z,12.77
2023-03-06T21:31:31.047Z,13.30
2023-03-06T21:41:55.270Z,13.37
2023-03-06T21:50:51.795Z,12.07
2023-03-06T21:55:03.864Z,12.57
2023-03-06T21:59:15.447Z,11.87
2023-03-06T22:03:28.641Z,11.97
2023-03-06T22:07:40.437Z,11.53
2023-03-06T22:11:51.922Z,12.17
2023-03-06T22:16:03.896Z,12.60
2023-03-06T22:20:15.758Z,11.23
2023-03-06T22:24:27.279Z,12.77
2023-03-06T22:28:39.799Z,11.40
